createdAt,value
2019-02-26T00:00:14.835Z,97212.50
2019-02-26T00:02:41.757Z,97209.75
2019-02-26T00:05:09.672Z,97212.69
2019-02-26T00:07:38.807Z,97219.31
2019-02-26T00:10:07.133Z,97220.25
2019-02-26T00:12:35.637Z,97220.14
2019-02-26T00:15:04.227Z,97219.37
2019-02-26T00:17:36.075Z,97220.69
2019-02-26T00:20:00.194Z,97220.39
2019-02-26T00:22:29.587Z,97224.19
2019-02-26T00:24:55.871Z,97217.25
2019-02-26T00:27:25.688Z,97221.37
2019-02-26T00:29:53.134Z,97222.62
2019-02-26T00:32:19.604Z,97218.06
2019-02-26T00:34:47.530Z,97212.19
2019-02-26T00:37:15.426Z,97210.62
2019-02-26T00:39:47.472Z,97204.77
2019-02-26T00:42:14.759Z,97199.52
2019-02-26T00:44:42.666Z,97198.90
2019-02-26T00:47:10.578Z,97203.22
2019-02-26T00:49:39.474Z,97203.42
2019-02-26T00:52:08.688Z,97200.72
2019-02-26T00:54:36.604Z,97196.32
2019-02-26T00:57:05.419Z,97186.84
2019-02-26T00:59:31.083Z,97175.14
2019-02-26T01:01:59.404Z,97174.17
2019-02-26T01:04:26.910Z,97170.66
2019-02-26T01:06:57.279Z,97164.28
2019-02-26T01:09:25.185Z,97154.11
2019-02-26T01:11:52.358Z,97144.60
2019-02-26T01:14:20.316Z,97141.74
2019-02-26T01:16:48.279Z,97138.73
2019-02-26T01:19:17.542Z,97140.82
2019-02-26T01:21:43.335Z,97131.50
2019-02-26T01:24:13.138Z,97128.20
2019-02-26T01:26:43.504Z,97129.61
2019-02-26T01:29:09.015Z,97129.96
2019-02-26T01:31:36.934Z,97128.52
2019-02-26T01:34:04.813Z,97123.64
2019-02-26T01:36:32.717Z,97115.66
2019-02-26T01:39:00.628Z,97110.14
2019-02-26T01:41:28.569Z,97105.61
2019-02-26T01:43:56.454Z,97105.64
2019-02-26T01:46:24.356Z,97111.32
2019-02-26T01:48:55.062Z,97108.02
2019-02-26T01:51:21.874Z,97108.48
2019-02-26T01:53:49.839Z,97103.61
2019-02-26T01:56:17.711Z,97107.03
2019-02-26T01:58:44.798Z,97112.38
2019-02-26T02:01:14.296Z,97118.48
2019-02-26T02:03:40.686Z,97127.24
2019-02-26T02:06:11.778Z,97126.84
2019-02-26T02:08:39.292Z,97119.53
2019-02-26T02:11:07.560Z,97118.63
2019-02-26T02:13:35.669Z,97117.54
2019-02-26T02:16:02.120Z,97108.72
2019-02-26T02:18:30.036Z,97108.30
2019-02-26T02:20:57.940Z,97104.70
2019-02-26T02:23:27.957Z,97099.56
2019-02-26T02:25:53.847Z,97099.03
2019-02-26T02:28:26.226Z,97102.59
2019-02-26T02:30:51.780Z,97103.92
2019-02-26T02:33:24.190Z,97102.52
2019-02-26T02:35:48.481Z,97106.84
2019-02-26T02:38:19.433Z,97102.80
2019-02-26T02:40:46.281Z,97104.47
2019-02-26T02:43:15.199Z,97103.39
2019-02-26T02:45:41.332Z,97098.71
2019-02-26T02:48:11.607Z,97101.28
2019-02-26T02:50:37.407Z,97107.63
2019-02-26T02:53:05.297Z,97102.22
2019-02-26T02:55:33.196Z,97094.30
2019-02-26T02:58:01.276Z,97098.86
2019-02-26T03:00:31.276Z,97095.05
2019-02-26T03:02:58.351Z,97094.94
2019-02-26T03:05:25.001Z,97097.76
2019-02-26T03:07:56.186Z,97096.61
2019-02-26T03:10:26.092Z,97090.84
2019-02-26T03:12:53.851Z,97084.69
2019-02-26T03:15:18.720Z,97084.25
2019-02-26T03:17:46.607Z,97085.69
2019-02-26T03:20:14.512Z,97081.80
2019-02-26T03:22:48.322Z,97083.25
2019-02-26T03:25:14.882Z,97079.37
2019-02-26T03:27:42.642Z,97084.47
2019-02-26T03:30:31.779Z,97089.36
2019-02-26T03:32:58.424Z,97080.06
2019-02-26T03:35:23.295Z,97068.83
2019-02-26T03:37:49.620Z,97062.05
2019-02-26T03:40:16.165Z,97058.91
2019-02-26T03:42:46.267Z,97050.84
2019-02-26T03:45:14.570Z,97052.88
2019-02-26T03:47:42.479Z,97046.13
2019-02-26T03:50:15.083Z,97049.68
2019-02-26T03:52:42.975Z,97048.69
2019-02-26T03:55:12.128Z,97052.97
2019-02-26T03:57:43.636Z,97052.87
2019-02-26T04:00:08.761Z,97053.34
2019-02-26T04:02:37.415Z,97055.31
2019-02-26T04:05:06.095Z,97049.17
2019-02-26T04:07:33.355Z,97049.00
2019-02-26T04:09:59.266Z,97048.73
2019-02-26T04:12:27.149Z,97049.35
2019-02-26T04:14:55.063Z,97049.70
2019-02-26T04:17:27.955Z,97054.14
2019-02-26T04:19:52.828Z,97049.55
2019-02-26T04:22:26.649Z,97052.69
2019-02-26T04:25:00.710Z,97043.13
2019-02-26T04:30:34.079Z,97038.45
2019-02-26T04:33:14.104Z,97032.50
2019-02-26T04:35:42.229Z,97025.12
2019-02-26T04:38:28.485Z,97024.33
2019-02-26T04:41:00.161Z,97020.77
2019-02-26T04:43:34.153Z,97011.20
2019-02-26T04:49:03.307Z,97017.44
2019-02-26T04:51:31.272Z,97013.59
2019-02-26T04:54:00.235Z,97006.94
2019-02-26T04:56:31.281Z,97010.09
2019-02-26T04:58:56.127Z,97010.26
2019-02-26T05:01:24.045Z,97017.55
2019-02-26T05:03:51.990Z,97013.20
2019-02-26T05:06:19.921Z,97011.33
2019-02-26T05:08:47.811Z,97003.62
2019-02-26T05:11:30.825Z,96997.05
2019-02-26T05:13:44.783Z,96995.81
2019-02-26T05:16:12.706Z,96999.39
2019-02-26T05:18:40.641Z,97002.08
2019-02-26T05:21:10.843Z,96997.56
2019-02-26T05:23:37.373Z,96994.43
2019-02-26T05:26:08.103Z,96995.94
2019-02-26T05:28:37.646Z,96999.00
2019-02-26T05:31:03.603Z,97001.72
2019-02-26T05:33:30.983Z,97006.53
2019-02-26T05:35:58.169Z,97001.02
2019-02-26T05:38:32.488Z,97001.51
2019-02-26T05:40:58.485Z,97003.64
2019-02-26T05:43:28.218Z,97008.27
2019-02-26T05:45:57.438Z,97011.17
2019-02-26T05:48:25.397Z,97006.40
2019-02-26T05:50:50.646Z,97010.47
2019-02-26T05:53:18.539Z,97010.63
2019-02-26T05:55:48.738Z,97009.41
2019-02-26T05:58:16.401Z,97009.47
2019-02-26T06:00:43.290Z,97019.98
2019-02-26T06:03:12.813Z,97018.92
2019-02-26T06:05:43.435Z,97017.19
2019-02-26T06:08:08.268Z,97017.92
2019-02-26T06:10:37.118Z,97021.92
2019-02-26T06:13:07.506Z,97020.28
2019-02-26T06:15:34.177Z,97014.96
2019-02-26T06:18:00.929Z,97018.91
2019-02-26T06:20:31.351Z,97024.92
2019-02-26T06:22:57.496Z,97017.00
2019-02-26T06:25:25.401Z,97025.40
2019-02-26T06:27:53.342Z,97031.55
2019-02-26T06:30:23.133Z,97027.08
2019-02-26T06:32:51.049Z,97031.31
2019-02-26T06:35:19.460Z,97030.08
2019-02-26T06:37:46.860Z,97030.41
2019-02-26T06:40:14.772Z,97034.45
2019-02-26T06:42:42.700Z,97037.88
2019-02-26T06:45:13.278Z,97045.75
2019-02-26T06:47:39.417Z,97049.86
2019-02-26T06:50:08.059Z,97056.97
2019-02-26T06:52:37.455Z,97059.09
2019-02-26T06:55:05.939Z,97066.98
2019-02-26T06:57:32.059Z,97054.75
2019-02-26T07:00:02.266Z,97052.22
2019-02-26T07:02:29.867Z,97046.88
2019-02-26T07:04:59.795Z,97049.63
2019-02-26T07:07:27.766Z,97049.31
2019-02-26T07:09:58.121Z,97045.33
2019-02-26T07:12:26.382Z,97041.74
2019-02-26T07:14:55.348Z,97049.08
2019-02-26T07:17:21.299Z,97048.91
2019-02-26T07:19:51.223Z,97050.15
2019-02-26T07:22:18.377Z,97052.84
2019-02-26T07:24:48.280Z,97045.03
2019-02-26T07:27:13.944Z,97045.66
2019-02-26T07:29:44.364Z,97050.84
2019-02-26T07:32:08.772Z,97049.09
2019-02-26T07:34:36.664Z,97046.06
2019-02-26T07:37:06.410Z,97040.45
2019-02-26T07:39:34.402Z,97035.79
2019-02-26T07:42:02.287Z,97033.61
2019-02-26T07:44:30.184Z,97037.01
2019-02-26T07:46:58.822Z,97038.73
2019-02-26T07:49:25.988Z,97041.79
2019-02-26T07:51:55.519Z,97048.63
2019-02-26T07:54:21.779Z,97048.90
2019-02-26T07:56:52.031Z,97046.92
2019-02-26T07:59:27.279Z,97043.63
2019-02-26T08:01:47.114Z,97042.15
2019-02-26T08:04:13.505Z,97041.56
2019-02-26T08:06:41.299Z,97037.16
2019-02-26T08:09:12.035Z,97041.95
2019-02-26T08:11:39.190Z,97053.31
2019-02-26T08:14:05.092Z,97055.66
2019-02-26T08:16:32.944Z,97046.97
2019-02-26T08:19:01.418Z,97052.11
2019-02-26T08:21:29.686Z,97052.86
2019-02-26T08:23:56.660Z,97057.84
2019-02-26T08:26:26.641Z,97054.05
2019-02-26T08:28:52.603Z,97052.39
2019-02-26T08:31:21.276Z,97055.58
2019-02-26T08:33:50.946Z,97052.29
2019-02-26T08:36:16.449Z,97047.30
2019-02-26T08:38:46.239Z,97054.48
2019-02-26T08:41:14.131Z,97059.46
2019-02-26T08:43:44.155Z,97065.97
2019-02-26T08:46:11.696Z,97063.47
2019-02-26T08:48:39.469Z,97063.48
2019-02-26T08:51:08.471Z,97060.56
2019-02-26T08:53:33.603Z,97059.17
2019-02-26T08:56:03.953Z,97062.77
2019-02-26T08:58:29.437Z,97063.42
2019-02-26T09:00:57.991Z,97060.09
2019-02-26T09:03:25.938Z,97055.70
2019-02-26T09:05:54.407Z,97053.28
2019-02-26T09:08:21.972Z,97050.17
2019-02-26T09:10:50.889Z,97049.07
2019-02-26T09:13:19.753Z,97038.65
2019-02-26T09:15:47.777Z,97037.00
2019-02-26T09:18:15.677Z,97042.09
2019-02-26T09:20:43.632Z,97036.69
2019-02-26T09:23:16.378Z,97034.36
2019-02-26T09:25:39.443Z,97030.84
2019-02-26T09:28:08.246Z,97036.34
2019-02-26T09:30:38.352Z,97031.62
2019-02-26T09:33:05.861Z,97018.67
2019-02-26T09:35:33.103Z,97011.27
2019-02-26T09:38:01.000Z,97012.82
2019-02-26T09:40:34.432Z,97007.47
2019-02-26T09:43:01.491Z,97001.14
2019-02-26T09:45:30.211Z,97004.82
2019-02-26T09:47:58.067Z,97004.87
2019-02-26T09:50:25.210Z,96997.14
2019-02-26T09:52:55.858Z,97001.38
2019-02-26T09:55:21.049Z,96996.24
2019-02-26T09:57:49.035Z,96992.44
2019-02-26T10:00:20.306Z,96991.41
2019-02-26T10:02:47.159Z,96998.98
2019-02-26T10:05:15.822Z,97001.09
2019-02-26T10:07:41.557Z,97003.66
2019-02-26T10:10:13.595Z,97004.58
2019-02-26T10:12:39.401Z,97005.16
2019-02-26T10:15:06.873Z,97000.12
2019-02-26T10:17:37.532Z,96998.91
2019-02-26T10:20:05.028Z,96996.98
2019-02-26T10:22:33.193Z,97003.30
2019-02-26T10:24:58.554Z,97011.44
2019-02-26T10:27:28.462Z,97008.70
2019-02-26T10:29:55.315Z,97005.13
2019-02-26T10:32:24.235Z,96999.59
2019-02-26T10:34:51.437Z,97001.66
2019-02-26T10:37:21.278Z,97001.27
2019-02-26T10:39:49.829Z,96995.06
2019-02-26T10:42:18.030Z,96997.45
2019-02-26T10:44:45.041Z,96993.10
2019-02-26T10:47:13.028Z,96991.93
2019-02-26T10:49:41.933Z,96990.88
2019-02-26T10:52:10.863Z,96988.08
2019-02-26T10:54:40.547Z,96985.77
2019-02-26T10:57:07.597Z,96982.41
2019-02-26T10:59:33.743Z,96983.05
2019-02-26T11:02:03.129Z,96983.27
2019-02-26T11:04:34.779Z,96981.33
2019-02-26T11:07:01.689Z,96988.56
2019-02-26T11:09:29.915Z,96983.28
2019-02-26T11:11:57.849Z,96981.16
2019-02-26T11:14:23.439Z,96979.38
2019-02-26T11:16:51.377Z,96979.41
2019-02-26T11:19:20.275Z,96971.95
2019-02-26T11:21:50.827Z,96976.22
2019-02-26T11:24:16.087Z,96975.72
2019-02-26T11:26:44.104Z,96971.98
2019-02-26T11:29:12.011Z,96973.20
2019-02-26T11:31:41.879Z,96968.80
2019-02-26T11:34:10.958Z,96964.67
2019-02-26T11:36:38.297Z,96965.70
2019-02-26T11:39:05.057Z,96974.41
2019-02-26T11:41:33.510Z,96962.89
2019-02-26T11:43:59.671Z,96961.92
2019-02-26T11:46:29.745Z,96962.57
2019-02-26T11:48:57.498Z,96964.06
2019-02-26T11:51:23.458Z,96962.03
2019-02-26T11:53:51.375Z,96949.86
2019-02-26T11:56:21.314Z,96941.19
2019-02-26T11:58:47.219Z,96939.85
2019-02-26T12:01:15.126Z,96939.67
2019-02-26T12:03:43.925Z,96933.84
2019-02-26T12:06:10.984Z,96935.77
2019-02-26T12:08:40.599Z,96926.61
2019-02-26T12:11:12.285Z,96927.08
2019-02-26T12:13:34.856Z,96921.39
2019-02-26T12:16:02.770Z,96917.59
2019-02-26T12:18:30.740Z,96915.83
2019-02-26T12:21:00.200Z,96915.39
2019-02-26T12:23:26.575Z,96909.14
2019-02-26T12:25:55.546Z,96910.89
2019-02-26T12:28:22.401Z,96907.96
2019-02-26T12:30:50.303Z,96900.81
2019-02-26T12:33:18.441Z,96906.13
2019-02-26T12:35:46.340Z,96903.93
2019-02-26T12:38:20.682Z,96900.52
2019-02-26T12:40:46.387Z,96895.80
2019-02-26T12:43:11.785Z,96896.11
2019-02-26T12:45:40.661Z,96896.73
2019-02-26T12:48:09.842Z,96891.11
2019-02-26T12:50:36.631Z,96884.10
2019-02-26T12:53:02.906Z,96889.67
2019-02-26T12:55:32.903Z,96885.86
2019-02-26T12:57:59.404Z,96883.26
2019-02-26T13:00:26.735Z,96880.85
2019-02-26T13:02:54.605Z,96880.78
2019-02-26T13:05:23.144Z,96880.75
2019-02-26T13:07:50.497Z,96879.03
2019-02-26T13:10:25.963Z,96871.59
2019-02-26T13:12:59.077Z,96873.25
2019-02-26T13:15:21.824Z,96866.13
2019-02-26T13:17:54.285Z,96853.95
2019-02-26T13:20:25.951Z,96852.95
2019-02-26T13:22:56.937Z,96857.73
2019-02-26T13:25:26.422Z,96845.58
2019-02-26T13:27:49.791Z,96846.59
2019-02-26T13:30:19.580Z,96848.57
2019-02-26T13:35:15.567Z,96839.06
2019-02-26T13:37:44.505Z,96841.84
2019-02-26T13:40:13.112Z,96835.63
2019-02-26T13:42:41.132Z,96831.95
2019-02-26T13:45:11.824Z,96827.98
2019-02-26T13:47:39.726Z,96827.20
2019-02-26T13:50:08.540Z,96829.13
2019-02-26T13:52:36.503Z,96824.94
2019-02-26T13:55:04.440Z,96827.31
2019-02-26T13:57:32.338Z,96832.24
2019-02-26T14:00:00.321Z,96829.71
2019-02-26T14:02:28.186Z,96825.27
2019-02-26T14:04:56.098Z,96821.41
2019-02-26T14:07:24.012Z,96824.16
2019-02-26T14:09:51.988Z,96823.16
2019-02-26T14:12:19.918Z,96823.02
2019-02-26T14:14:47.850Z,96817.23
2019-02-26T14:17:15.729Z,96818.55
2019-02-26T14:19:47.514Z,96813.48
2019-02-26T14:22:15.428Z,96820.48
2019-02-26T14:24:43.415Z,96816.67
2019-02-26T14:27:11.311Z,96819.05
2019-02-26T14:29:39.225Z,96817.71
2019-02-26T14:32:07.148Z,96813.47
2019-02-26T14:34:35.069Z,96810.34
2019-02-26T14:37:02.983Z,96810.52
2019-02-26T14:39:30.877Z,96818.30
2019-02-26T14:41:58.841Z,96815.91
2019-02-26T14:44:26.748Z,96818.31
2019-02-26T14:46:55.301Z,96813.67
2019-02-26T14:49:22.796Z,96809.61
2019-02-26T14:51:50.746Z,96809.86
2019-02-26T14:54:18.631Z,96804.73
2019-02-26T14:56:46.567Z,96791.72
2019-02-26T14:59:14.472Z,96795.58
2019-02-26T15:01:42.539Z,96789.67
2019-02-26T15:04:10.442Z,96793.94
2019-02-26T15:06:38.365Z,96790.39
2019-02-26T15:09:06.257Z,96792.54
2019-02-26T15:11:34.198Z,96785.03
2019-02-26T15:14:02.093Z,96783.77
2019-02-26T15:16:30.059Z,96782.60
2019-02-26T15:18:57.994Z,96777.08
2019-02-26T15:21:25.934Z,96781.98
2019-02-26T15:23:53.884Z,96780.82
2019-02-26T15:26:21.853Z,96781.55
2019-02-26T15:28:50.729Z,96779.33
2019-02-26T15:31:19.644Z,96784.97
2019-02-26T15:33:47.586Z,96778.20
2019-02-26T15:36:15.508Z,96783.69
2019-02-26T15:38:43.463Z,96790.49
2019-02-26T15:41:11.356Z,96790.35
2019-02-26T15:43:39.271Z,96789.42
2019-02-26T15:46:07.246Z,96790.31
2019-02-26T15:48:36.354Z,96794.63
2019-02-26T15:51:03.165Z,96791.25
2019-02-26T15:53:32.043Z,96788.61
2019-02-26T15:56:00.019Z,96784.95
2019-02-26T15:58:27.999Z,96784.11
2019-02-26T16:00:55.935Z,96788.50
2019-02-26T16:03:23.857Z,96787.26
2019-02-26T16:05:51.802Z,96794.82
2019-02-26T16:08:19.763Z,96794.03
2019-02-26T16:10:48.615Z,96786.09
2019-02-26T16:13:16.458Z,96789.03
2019-02-26T16:15:44.393Z,96793.41
2019-02-26T16:18:13.199Z,96796.42
2019-02-26T16:20:41.183Z,96798.96
2019-02-26T16:23:09.092Z,96799.60
2019-02-26T16:25:37.055Z,96800.91
2019-02-26T16:28:04.967Z,96801.13
2019-02-26T16:30:32.936Z,96802.25
2019-02-26T16:33:00.859Z,96793.73
2019-02-26T16:35:28.750Z,96794.17
2019-02-26T16:37:56.679Z,96799.39
2019-02-26T16:40:25.587Z,96799.52
2019-02-26T16:42:54.470Z,96801.73
2019-02-26T16:45:22.412Z,96804.62
2019-02-26T16:47:50.660Z,96808.28
2019-02-26T16:50:22.188Z,96804.97
2019-02-26T16:52:50.108Z,96810.41
2019-02-26T16:55:18.039Z,96809.88
2019-02-26T16:57:45.949Z,96806.94
2019-02-26T17:00:16.388Z,96802.19
2019-02-26T17:02:44.710Z,96804.98
2019-02-26T17:05:14.977Z,96800.78
2019-02-26T17:07:40.637Z,96800.75
2019-02-26T17:10:11.239Z,96802.94
2019-02-26T17:12:40.099Z,96794.87
2019-02-26T17:15:10.741Z,96796.98
2019-02-26T17:17:38.663Z,96792.77
2019-02-26T17:20:07.470Z,96793.77
2019-02-26T17:22:38.388Z,96794.93
2019-02-26T17:25:05.196Z,96799.66
2019-02-26T17:27:33.093Z,96802.30
2019-02-26T17:30:01.934Z,96803.84
2019-02-26T17:32:31.825Z,96811.20
2019-02-26T17:34:59.843Z,96811.62
2019-02-26T17:37:27.745Z,96808.17
2019-02-26T17:39:55.653Z,96811.08
2019-02-26T17:42:23.734Z,96812.85
2019-02-26T17:44:51.523Z,96815.73
2019-02-26T17:47:19.436Z,96815.05
2019-02-26T17:49:47.332Z,96811.31
2019-02-26T17:52:15.247Z,96815.33
2019-02-26T17:54:43.111Z,96815.86
2019-02-26T17:57:11.095Z,96819.63
2019-02-26T17:59:39.178Z,96810.28
2019-02-26T18:02:07.054Z,96807.90
2019-02-26T18:04:35.047Z,96808.89
2019-02-26T18:07:02.943Z,96806.44
2019-02-26T18:09:34.397Z,96806.38
2019-02-26T18:11:59.788Z,96808.59
2019-02-26T18:14:26.650Z,96815.02
2019-02-26T18:16:54.589Z,96814.34
2019-02-26T18:19:22.495Z,96809.27
2019-02-26T18:21:51.760Z,96806.38
2019-02-26T18:24:18.336Z,96808.67
2019-02-26T18:26:46.241Z,96807.84
2019-02-26T18:29:14.156Z,96808.04
2019-02-26T18:31:42.041Z,96797.14
2019-02-26T18:34:11.817Z,96797.44
2019-02-26T18:36:37.936Z,96804.06
2019-02-26T18:39:05.844Z,96795.84
2019-02-26T18:41:35.250Z,96796.82
2019-02-26T18:44:05.504Z,96795.75
2019-02-26T18:46:33.750Z,96794.66
2019-02-26T18:49:01.336Z,96803.52
2019-02-26T18:51:29.271Z,96807.41
2019-02-26T18:53:57.271Z,96810.59
2019-02-26T18:56:25.203Z,96811.83
2019-02-26T18:58:53.105Z,96807.59
2019-02-26T19:01:20.992Z,96808.04
2019-02-26T19:03:49.027Z,96814.78
2019-02-26T19:06:16.941Z,96809.08
2019-02-26T19:08:44.840Z,96807.92
2019-02-26T19:11:16.639Z,96810.23
2019-02-26T19:13:40.654Z,96813.52
2019-02-26T19:16:08.561Z,96813.30
2019-02-26T19:18:38.392Z,96818.78
2019-02-26T19:21:04.417Z,96816.66
2019-02-26T19:23:32.347Z,96815.34
2019-02-26T19:26:00.248Z,96819.86
2019-02-26T19:28:28.132Z,96825.45
2019-02-26T19:30:56.064Z,96815.04
2019-02-26T19:33:24.009Z,96808.91
2019-02-26T19:35:51.923Z,96805.44
2019-02-26T19:38:19.842Z,96808.17
2019-02-26T19:40:50.541Z,96807.35
2019-02-26T19:43:18.484Z,96808.97
2019-02-26T19:45:46.409Z,96808.09
2019-02-26T19:48:14.303Z,96813.27
2019-02-26T19:50:45.602Z,96810.02
2019-02-26T19:53:10.770Z,96811.36
2019-02-26T19:55:38.950Z,96808.34
2019-02-26T19:58:07.105Z,96814.52
2019-02-26T20:00:34.850Z,96810.96
2019-02-26T20:03:05.249Z,96803.98
2019-02-26T20:05:30.668Z,96804.62
2019-02-26T20:07:58.640Z,96801.70
2019-02-26T20:10:26.540Z,96800.61
2019-02-26T20:12:54.431Z,96802.45
2019-02-26T20:15:22.507Z,96795.34
2019-02-26T20:17:50.247Z,96790.61
2019-02-26T20:20:19.025Z,96795.05
2019-02-26T20:22:47.011Z,96791.86
2019-02-26T20:25:15.659Z,96796.12
2019-02-26T20:27:43.556Z,96794.52
2019-02-26T20:30:13.264Z,96799.61
2019-02-26T20:32:41.170Z,96793.84
2019-02-26T20:35:11.551Z,96788.69
2019-02-26T20:37:37.124Z,96792.47
2019-02-26T20:40:05.584Z,96791.64
2019-02-26T20:42:33.498Z,96798.07
2019-02-26T20:45:01.388Z,96795.42
2019-02-26T20:47:31.610Z,96799.09
2019-02-26T20:49:57.300Z,96795.53
2019-02-26T20:52:25.264Z,96792.09
2019-02-26T20:54:53.154Z,96789.24
2019-02-26T20:57:21.053Z,96791.30
2019-02-26T20:59:51.516Z,96786.93
2019-02-26T21:02:16.932Z,96787.22
2019-02-26T21:04:45.255Z,96788.36
2019-02-26T21:07:13.675Z,96784.40
2019-02-26T21:09:41.624Z,96785.00
2019-02-26T21:12:08.683Z,96779.47
2019-02-26T21:14:38.667Z,96778.94
2019-02-26T21:17:04.541Z,96773.91
2019-02-26T21:19:35.597Z,96769.52
2019-02-26T21:22:00.434Z,96760.20
2019-02-26T21:24:28.397Z,96752.12
2019-02-26T21:26:56.375Z,96747.72
2019-02-26T21:29:24.286Z,96741.89
2019-02-26T21:31:52.740Z,96740.61
2019-02-26T21:34:20.099Z,96737.88
2019-02-26T21:36:47.994Z,96740.07
2019-02-26T21:39:15.892Z,96736.92
2019-02-26T21:41:43.829Z,96733.54
2019-02-26T21:44:11.749Z,96737.06
2019-02-26T21:46:39.668Z,96736.75
2019-02-26T21:49:09.805Z,96745.81
2019-02-26T21:51:35.594Z,96739.82
2019-02-26T21:54:03.510Z,96736.30
2019-02-26T21:56:31.391Z,96739.19
2019-02-26T21:58:59.869Z,96745.70
2019-02-26T22:01:27.272Z,96754.50
2019-02-26T22:03:58.489Z,96752.20
2019-02-26T22:06:24.173Z,96755.56
2019-02-26T22:08:54.917Z,96766.49
2019-02-26T22:11:21.971Z,96774.89
2019-02-26T22:13:49.888Z,96769.97
2019-02-26T22:16:18.669Z,96777.34
2019-02-26T22:18:46.615Z,96773.59
2019-02-26T22:21:14.516Z,96779.94
2019-02-26T22:23:42.459Z,96780.34
2019-02-26T22:26:10.340Z,96781.33
2019-02-26T22:28:39.713Z,96780.93
2019-02-26T22:31:06.579Z,96781.58
2019-02-26T22:33:34.488Z,96775.51
2019-02-26T22:36:02.458Z,96774.19
2019-02-26T22:38:30.378Z,96777.80
2019-02-26T22:40:59.887Z,96771.42
2019-02-26T22:43:26.299Z,96772.02
2019-02-26T22:45:54.208Z,96768.16
2019-02-26T22:48:22.110Z,96769.63
2019-02-26T22:50:50.039Z,96767.19
2019-02-26T22:53:17.918Z,96772.72
2019-02-26T22:55:49.602Z,96774.11
2019-02-26T22:58:13.832Z,96779.73
2019-02-26T23:01:04.022Z,96777.75
2019-02-26T23:03:31.912Z,96783.03
2019-02-26T23:05:59.831Z,96779.26
2019-02-26T23:08:28.835Z,96779.81
2019-02-26T23:11:01.375Z,96778.23
2019-02-26T23:13:31.902Z,96783.16
2019-02-26T23:15:57.315Z,96789.63
2019-02-26T23:18:25.263Z,96778.42
2019-02-26T23:20:53.171Z,96775.32
2019-02-26T23:23:21.868Z,96782.73
2019-02-26T23:25:49.015Z,96787.34
2019-02-26T23:28:17.051Z,96783.45
2019-02-26T23:30:44.950Z,96779.00
2019-02-26T23:33:15.039Z,96772.34
2019-02-26T23:35:40.747Z,96787.50
2019-02-26T23:38:09.178Z,96789.52
2019-02-26T23:40:36.702Z,96787.63
2019-02-26T23:43:04.581Z,96778.16
2019-02-26T23:45:32.500Z,96769.28
2019-02-26T23:48:00.507Z,96771.38
2019-02-26T23:50:28.574Z,96775.39
2019-02-26T23:53:00.775Z,96763.83
2019-02-26T23:55:24.604Z,96761.53
2019-02-26T23:57:52.515Z,96759.19
